sensor_id;sensor_type;location;lat;lon;timestamp;pressure;altitude;pressure_sealevel;temperature;humidity
64053;BME280;50299;49.524;8.536;2023-01-28T00:01:04;101312.13;;;1.37;67.97
64053;BME280;50299;49.524;8.536;2023-01-28T00:03:30;101307.81;;;0.96;64.48
64053;BME280;50299;49.524;8.536;2023-01-28T00:06:08;101316.66;;;1.32;75.96
64053;BME280;50299;49.524;8.536;2023-01-28T00:08:34;101313.63;;;1.79;81.29
64053;BME280;50299;49.524;8.536;2023-01-28T00:11:03;101310.06;;;1.78;67.81
64053;BME280;50299;49.524;8.536;2023-01-28T00:13:31;101313.44;;;2.02;79.49
64053;BME280;50299;49.524;8.536;2023-01-28T00:15:59;101311.34;;;2.09;67.20
64053;BME280;50299;49.524;8.536;2023-01-28T00:18:27;101299.19;;;1.44;65.53
64053;BME280;50299;49.524;8.536;2023-01-28T00:20:58;101301.56;;;0.95;68.21
64053;BME280;50299;49.524;8.536;2023-01-28T00:23:26;101302.03;;;0.92;66.52
64053;BME280;50299;49.524;8.536;2023-01-28T00:25:53;101298.72;;;0.21;70.31
64053;BME280;50299;49.524;8.536;2023-01-28T00:28:21;101303.34;;;-0.03;67.17
64053;BME280;50299;49.524;8.536;2023-01-28T00:30:47;101296.25;;;-0.15;70.30
64053;BME280;50299;49.524;8.536;2023-01-28T00:33:13;101301.56;;;-0.20;68.05
64053;BME280;50299;49.524;8.536;2023-01-28T00:35:40;101304.25;;;0.15;67.64
64053;BME280;50299;49.524;8.536;2023-01-28T00:38:06;101291.56;;;0.32;74.54
64053;BME280;50299;49.524;8.536;2023-01-28T00:40:34;101299.91;;;0.66;73.22
64053;BME280;50299;49.524;8.536;2023-01-28T00:43:00;101293.69;;;0.82;70.79
64053;BME280;50299;49.524;8.536;2023-01-28T00:45:27;101301.06;;;-0.53;68.34
64053;BME280;50299;49.524;8.536;2023-01-28T00:47:53;101293.97;;;-0.65;70.07
64053;BME280;50299;49.524;8.536;2023-01-28T00:50:20;101287.25;;;-1.05;70.58
64053;BME280;50299;49.524;8.536;2023-01-28T00:52:47;101289.19;;;-1.12;72.36
64053;BME280;50299;49.524;8.536;2023-01-28T00:55:13;101288.97;;;-1.10;72.63
64053;BME280;50299;49.524;8.536;2023-01-28T00:57:40;101288.31;;;-0.52;71.30
64053;BME280;50299;49.524;8.536;2023-01-28T01:00:07;101290.53;;;-0.72;70.46
64053;BME280;50299;49.524;8.536;2023-01-28T01:02:33;101302.94;;;-0.65;71.76
64053;BME280;50299;49.524;8.536;2023-01-28T01:05:00;101293.28;;;-0.25;71.61
64053;BME280;50299;49.524;8.536;2023-01-28T01:07:29;101298.25;;;-0.22;71.83
64053;BME280;50299;49.524;8.536;2023-01-28T01:10:14;101300.91;;;-0.81;69.65
64053;BME280;50299;49.524;8.536;2023-01-28T01:12:41;101296.84;;;-0.37;71.90
64053;BME280;50299;49.524;8.536;2023-01-28T01:15:09;101299.56;;;-0.25;70.00
64053;BME280;50299;49.524;8.536;2023-01-28T01:17:41;101299.22;;;-1.12;71.06
64053;BME280;50299;49.524;8.536;2023-01-28T01:20:11;101302.91;;;-0.76;74.56
64053;BME280;50299;49.524;8.536;2023-01-28T01:22:38;101303.81;;;-0.41;75.01
64053;BME280;50299;49.524;8.536;2023-01-28T01:25:05;101311.84;;;0.01;69.63
64053;BME280;50299;49.524;8.536;2023-01-28T01:27:32;101304.28;;;-0.20;70.64
64053;BME280;50299;49.524;8.536;2023-01-28T01:29:58;101303.56;;;-0.39;67.51
64053;BME280;50299;49.524;8.536;2023-01-28T01:32:28;101309.94;;;-0.22;67.91
64053;BME280;50299;49.524;8.536;2023-01-28T01:34:55;101305.34;;;0.02;71.44
64053;BME280;50299;49.524;8.536;2023-01-28T01:37:21;101306.53;;;-0.06;69.23
64053;BME280;50299;49.524;8.536;2023-01-28T01:39:48;101305.59;;;0.12;69.42
64053;BME280;50299;49.524;8.536;2023-01-28T01:42:14;101301.66;;;0.20;70.26
64053;BME280;50299;49.524;8.536;2023-01-28T01:50:38;101315.34;;;-0.57;68.29
64053;BME280;50299;49.524;8.536;2023-01-28T01:53:13;101316.03;;;-0.73;68.29
64053;BME280;50299;49.524;8.536;2023-01-28T01:55:45;101314.91;;;-0.31;71.26
64053;BME280;50299;49.524;8.536;2023-01-28T01:58:15;101312.09;;;-0.24;70.21
64053;BME280;50299;49.524;8.536;2023-01-28T02:00:43;101321.69;;;-0.75;69.39
64053;BME280;50299;49.524;8.536;2023-01-28T02:03:10;101317.44;;;-1.31;71.57
64053;BME280;50299;49.524;8.536;2023-01-28T02:05:37;101324.50;;;-1.30;70.71
64053;BME280;50299;49.524;8.536;2023-01-28T02:08:04;101321.69;;;-1.05;71.26
64053;BME280;50299;49.524;8.536;2023-01-28T02:11:00;101316.31;;;-0.93;69.80
64053;BME280;50299;49.524;8.536;2023-01-28T02:13:31;101322.28;;;-1.52;71.68
64053;BME280;50299;49.524;8.536;2023-01-28T02:16:02;101325.50;;;-1.61;73.49
64053;BME280;50299;49.524;8.536;2023-01-28T02:18:31;101329.38;;;-0.72;72.59
64053;BME280;50299;49.524;8.536;2023-01-28T02:21:30;101317.00;;;-0.56;71.77
64053;BME280;50299;49.524;8.536;2023-01-28T02:24:28;101334.19;;;-0.09;69.98
64053;BME280;50299;49.524;8.536;2023-01-28T02:27:13;101334.75;;;-0.54;68.75
64053;BME280;50299;49.524;8.536;2023-01-28T02:29:49;101326.97;;;0.09;70.86
64053;BME280;50299;49.524;8.536;2023-01-28T02:32:35;101332.06;;;0.17;66.31
64053;BME280;50299;49.524;8.536;2023-01-28T02:35:17;101334.03;;;-0.49;67.26
64053;BME280;50299;49.524;8.536;2023-01-28T02:38:10;101333.50;;;0.08;71.41
64053;BME280;50299;49.524;8.536;2023-01-28T02:40:38;101328.84;;;0.72;73.23
64053;BME280;50299;49.524;8.536;2023-01-28T02:43:34;101329.66;;;0.84;75.70
64053;BME280;50299;49.524;8.536;2023-01-28T02:46:11;101317.16;;;0.71;66.29
64053;BME280;50299;49.524;8.536;2023-01-28T02:48:58;101316.31;;;0.71;75.52
64053;BME280;50299;49.524;8.536;2023-01-28T02:54:10;101318.53;;;-1.02;69.11
64053;BME280;50299;49.524;8.536;2023-01-28T02:56:46;101318.28;;;-0.59;67.16
64053;BME280;50299;49.524;8.536;2023-01-28T02:59:39;101313.91;;;-1.50;73.81
64053;BME280;50299;49.524;8.536;2023-01-28T03:04:45;101328.41;;;-1.08;73.99
64053;BME280;50299;49.524;8.536;2023-01-28T03:07:14;101333.09;;;-1.33;70.92
64053;BME280;50299;49.524;8.536;2023-01-28T03:09:44;101321.41;;;-1.15;76.69
64053;BME280;50299;49.524;8.536;2023-01-28T03:12:15;101335.81;;;-1.15;70.36
64053;BME280;50299;49.524;8.536;2023-01-28T03:15:11;101331.56;;;-1.11;71.75
64053;BME280;50299;49.524;8.536;2023-01-28T03:18:09;101340.13;;;-0.95;73.02
64053;BME280;50299;49.524;8.536;2023-01-28T03:21:04;101341.75;;;-0.76;71.64
64053;BME280;50299;49.524;8.536;2023-01-28T03:23:57;101341.38;;;-0.26;79.55
64053;BME280;50299;49.524;8.536;2023-01-28T03:26:53;101344.81;;;-0.07;68.17
64053;BME280;50299;49.524;8.536;2023-01-28T03:29:41;101339.50;;;0.21;75.18
64053;BME280;50299;49.524;8.536;2023-01-28T03:32:27;101326.41;;;0.59;71.29
64053;BME280;50299;49.524;8.536;2023-01-28T03:35:15;101328.84;;;0.20;66.02
64053;BME280;50299;49.524;8.536;2023-01-28T03:38:03;101329.44;;;-0.48;68.83
64053;BME280;50299;49.524;8.536;2023-01-28T03:40:56;101337.97;;;-0.33;69.43
64053;BME280;50299;49.524;8.536;2023-01-28T03:43:23;101339.38;;;-0.19;70.27
64053;BME280;50299;49.524;8.536;2023-01-28T03:45:49;101346.22;;;0.19;73.56
64053;BME280;50299;49.524;8.536;2023-01-28T03:48:23;101344.16;;;0.61;77.55
64053;BME280;50299;49.524;8.536;2023-01-28T03:50:50;101354.84;;;0.91;80.42
64053;BME280;50299;49.524;8.536;2023-01-28T03:53:18;101357.00;;;0.14;66.85
64053;BME280;50299;49.524;8.536;2023-01-28T03:55:47;101359.13;;;-0.12;67.20
64053;BME280;50299;49.524;8.536;2023-01-28T03:58:14;101367.38;;;-0.18;67.98
64053;BME280;50299;49.524;8.536;2023-01-28T04:00:41;101361.91;;;-0.30;69.41
64053;BME280;50299;49.524;8.536;2023-01-28T04:03:13;101373.00;;;-0.43;66.53
64053;BME280;50299;49.524;8.536;2023-01-28T04:05:57;101368.97;;;-0.53;71.36
64053;BME280;50299;49.524;8.536;2023-01-28T04:08:24;101366.03;;;-0.51;68.25
64053;BME280;50299;49.524;8.536;2023-01-28T04:10:51;101372.91;;;-0.37;70.70
64053;BME280;50299;49.524;8.536;2023-01-28T04:13:18;101364.69;;;-0.60;70.66
64053;BME280;50299;49.524;8.536;2023-01-28T04:15:45;101360.66;;;-0.99;68.67
64053;BME280;50299;49.524;8.536;2023-01-28T04:18:12;101358.81;;;-0.87;76.52
64053;BME280;50299;49.524;8.536;2023-01-28T04:20:39;101366.41;;;-1.08;72.97
64053;BME280;50299;49.524;8.536;2023-01-28T04:23:06;101360.16;;;-1.27;69.26
64053;BME280;50299;49.524;8.536;2023-01-28T04:25:33;101357.50;;;-1.88;75.42
64053;BME280;50299;49.524;8.536;2023-01-28T04:28:00;101358.56;;;-1.71;73.98
64053;BME280;50299;49.524;8.536;2023-01-28T04:30:26;101357.50;;;-1.33;73.34
64053;BME280;50299;49.524;8.536;2023-01-28T04:32:53;101370.34;;;-1.59;71.27
64053;BME280;50299;49.524;8.536;2023-01-28T04:35:20;101365.66;;;-1.70;71.10
64053;BME280;50299;49.524;8.536;2023-01-28T04:37:46;101359.84;;;-2.42;72.63
64053;BME280;50299;49.524;8.536;2023-01-28T04:40:12;101355.47;;;-2.68;74.20
64053;BME280;50299;49.524;8.536;2023-01-28T04:42:39;101357.41;;;-2.00;74.95
64053;BME280;50299;49.524;8.536;2023-01-28T04:45:06;101369.19;;;-2.13;74.77
64053;BME280;50299;49.524;8.536;2023-01-28T04:47:32;101360.44;;;-2.15;73.64
64053;BME280;50299;49.524;8.536;2023-01-28T04:49:59;101361.00;;;-2.88;75.14
64053;BME280;50299;49.524;8.536;2023-01-28T04:52:25;101365.59;;;-3.33;78.72
64053;BME280;50299;49.524;8.536;2023-01-28T04:54:51;101363.31;;;-3.30;77.85
64053;BME280;50299;49.524;8.536;2023-01-28T04:57:18;101374.22;;;-3.05;76.99
64053;BME280;50299;49.524;8.536;2023-01-28T04:59:44;101377.34;;;-3.08;75.88
64053;BME280;50299;49.524;8.536;2023-01-28T05:02:10;101368.47;;;-2.83;76.00
64053;BME280;50299;49.524;8.536;2023-01-28T05:04:37;101367.53;;;-3.02;76.82
64053;BME280;50299;49.524;8.536;2023-01-28T05:07:03;101366.94;;;-3.11;76.88
64053;BME280;50299;49.524;8.536;2023-01-28T05:09:29;101373.09;;;-2.97;76.83
64053;BME280;50299;49.524;8.536;2023-01-28T05:11:55;101380.88;;;-3.14;76.37
64053;BME280;50299;49.524;8.536;2023-01-28T05:14:22;101375.84;;;-3.48;78.67
64053;BME280;50299;49.524;8.536;2023-01-28T05:16:49;101374.38;;;-2.99;77.54
64053;BME280;50299;49.524;8.536;2023-01-28T05:19:15;101379.13;;;-2.88;76.04
64053;BME280;50299;49.524;8.536;2023-01-28T05:21:41;101377.91;;;-2.92;75.64
64053;BME280;50299;49.524;8.536;2023-01-28T05:24:08;101379.56;;;-2.60;74.99
64053;BME280;50299;49.524;8.536;2023-01-28T05:26:34;101383.03;;;-2.53;76.50
64053;BME280;50299;49.524;8.536;2023-01-28T05:29:02;101386.28;;;-2.69;73.58
64053;BME280;50299;49.524;8.536;2023-01-28T05:31:29;101396.28;;;-3.14;75.96
64053;BME280;50299;49.524;8.536;2023-01-28T05:33:56;101396.28;;;-3.08;77.22
64053;BME280;50299;49.524;8.536;2023-01-28T05:36:23;101414.72;;;-3.63;77.47
64053;BME280;50299;49.524;8.536;2023-01-28T05:38:49;101403.16;;;-3.12;78.75
64053;BME280;50299;49.524;8.536;2023-01-28T05:41:16;101409.16;;;-3.10;76.12
64053;BME280;50299;49.524;8.536;2023-01-28T05:43:42;101398.88;;;-2.88;76.69
64053;BME280;50299;49.524;8.536;2023-01-28T05:46:09;101404.47;;;-3.28;76.17
64053;BME280;50299;49.524;8.536;2023-01-28T05:48:35;101415.56;;;-3.56;77.89
64053;BME280;50299;49.524;8.536;2023-01-28T05:51:01;101415.78;;;-2.92;79.33
64053;BME280;50299;49.524;8.536;2023-01-28T05:53:30;101412.78;;;-2.78;74.84
64053;BME280;50299;49.524;8.536;2023-01-28T05:55:57;101419.53;;;-2.55;75.17
64053;BME280;50299;49.524;8.536;2023-01-28T05:58:23;101424.25;;;-2.82;72.73
64053;BME280;50299;49.524;8.536;2023-01-28T06:00:53;101427.50;;;-2.35;73.63
64053;BME280;50299;49.524;8.536;2023-01-28T06:03:21;101420.31;;;-2.23;71.36
64053;BME280;50299;49.524;8.536;2023-01-28T06:05:47;101431.13;;;-2.80;72.87
64053;BME280;50299;49.524;8.536;2023-01-28T06:08:14;101431.16;;;-2.23;73.98
64053;BME280;50299;49.524;8.536;2023-01-28T06:10:40;101434.00;;;-2.74;74.26
64053;BME280;50299;49.524;8.536;2023-01-28T06:13:07;101437.56;;;-2.42;73.60
64053;BME280;50299;49.524;8.536;2023-01-28T06:15:36;101444.28;;;-1.70;77.52
64053;BME280;50299;49.524;8.536;2023-01-28T06:18:03;101442.88;;;-2.29;71.67
64053;BME280;50299;49.524;8.536;2023-01-28T06:20:29;101452.78;;;-2.48;71.90
64053;BME280;50299;49.524;8.536;2023-01-28T06:22:56;101453.88;;;-2.24;71.43
64053;BME280;50299;49.524;8.536;2023-01-28T06:25:22;101459.03;;;-1.66;79.71
64053;BME280;50299;49.524;8.536;2023-01-28T06:27:48;101459.38;;;-1.56;69.58
64053;BME280;50299;49.524;8.536;2023-01-28T06:30:15;101457.84;;;-1.95;70.90
64053;BME280;50299;49.524;8.536;2023-01-28T06:32:42;101467.13;;;-1.84;69.54
64053;BME280;50299;49.524;8.536;2023-01-28T06:35:09;101467.56;;;-1.62;69.79
64053;BME280;50299;49.524;8.536;2023-01-28T06:37:36;101477.88;;;-1.09;69.65
64053;BME280;50299;49.524;8.536;2023-01-28T06:40:05;101464.03;;;-1.88;68.81
64053;BME280;50299;49.524;8.536;2023-01-28T06:42:31;101475.25;;;-1.16;70.92
64053;BME280;50299;49.524;8.536;2023-01-28T06:44:58;101477.72;;;-2.39;69.84
64053;BME280;50299;49.524;8.536;2023-01-28T06:47:24;101474.59;;;-2.05;72.18
64053;BME280;50299;49.524;8.536;2023-01-28T06:49:50;101484.63;;;-1.55;73.57
64053;BME280;50299;49.524;8.536;2023-01-28T06:52:17;101493.16;;;-1.77;72.80
64053;BME280;50299;49.524;8.536;2023-01-28T06:54:43;101495.13;;;-1.40;70.13
64053;BME280;50299;49.524;8.536;2023-01-28T06:57:09;101505.66;;;-0.70;77.35
64053;BME280;50299;49.524;8.536;2023-01-28T06:59:36;101502.22;;;-0.47;70.61
64053;BME280;50299;49.524;8.536;2023-01-28T07:02:03;101505.72;;;-0.95;67.88
64053;BME280;50299;49.524;8.536;2023-01-28T07:04:30;101507.06;;;-0.68;77.31
64053;BME280;50299;49.524;8.536;2023-01-28T07:06:57;101500.91;;;-0.93;67.93
64053;BME280;50299;49.524;8.536;2023-01-28T07:09:23;101503.84;;;-0.95;67.78
64053;BME280;50299;49.524;8.536;2023-01-28T07:11:49;101499.69;;;-0.97;71.03
64053;BME280;50299;49.524;8.536;2023-01-28T07:14:16;101500.03;;;-2.37;71.90
64053;BME280;50299;49.524;8.536;2023-01-28T07:16:42;101504.28;;;-2.55;72.21
64053;BME280;50299;49.524;8.536;2023-01-28T07:19:08;101499.84;;;-2.42;75.17
64053;BME280;50299;49.524;8.536;2023-01-28T07:21:35;101503.31;;;-2.35;72.09
64053;BME280;50299;49.524;8.536;2023-01-28T07:24:02;101513.09;;;-2.72;73.60
64053;BME280;50299;49.524;8.536;2023-01-28T07:26:30;101508.72;;;-2.67;76.33
64053;BME280;50299;49.524;8.536;2023-01-28T07:28:57;101506.81;;;-2.60;77.35
64053;BME280;50299;49.524;8.536;2023-01-28T07:31:23;101513.81;;;-2.45;74.69
64053;BME280;50299;49.524;8.536;2023-01-28T07:33:50;101509.38;;;-2.71;75.36
64053;BME280;50299;49.524;8.536;2023-01-28T07:36:16;101509.09;;;-2.18;74.26
64053;BME280;50299;49.524;8.536;2023-01-28T07:38:43;101512.59;;;-2.49;72.62
64053;BME280;50299;49.524;8.536;2023-01-28T07:41:10;101508.88;;;-2.17;72.79
64053;BME280;50299;49.524;8.536;2023-01-28T07:43:36;101509.16;;;-2.77;72.99
64053;BME280;50299;49.524;8.536;2023-01-28T07:46:03;101510.38;;;-2.66;72.30
64053;BME280;50299;49.524;8.536;2023-01-28T07:48:29;101506.41;;;-2.25;72.32
64053;BME280;50299;49.524;8.536;2023-01-28T07:50:59;101514.44;;;-2.12;70.87
64053;BME280;50299;49.524;8.536;2023-01-28T07:53:27;101510.75;;;-1.86;70.52
64053;BME280;50299;49.524;8.536;2023-01-28T07:55:59;101515.94;;;-2.54;73.67
64053;BME280;50299;49.524;8.536;2023-01-28T07:58:26;101511.72;;;-1.80;71.93
64053;BME280;50299;49.524;8.536;2023-01-28T08:00:56;101526.38;;;-2.58;71.92
64053;BME280;50299;49.524;8.536;2023-01-28T08:03:23;101525.72;;;-1.83;73.41
64053;BME280;50299;49.524;8.536;2023-01-28T08:05:51;101522.50;;;-1.73;71.00
64053;BME280;50299;49.524;8.536;2023-01-28T08:08:22;101523.78;;;-1.51;70.13
64053;BME280;50299;49.524;8.536;2023-01-28T08:10:49;101527.06;;;-1.42;68.24
64053;BME280;50299;49.524;8.536;2023-01-28T08:13:18;101523.19;;;-1.28;68.55
64053;BME280;50299;49.524;8.536;2023-01-28T08:15:45;101526.88;;;-1.22;70.93
64053;BME280;50299;49.524;8.536;2023-01-28T08:18:15;101522.19;;;-0.90;71.65
64053;BME280;50299;49.524;8.536;2023-01-28T08:20:42;101533.53;;;-0.45;67.44
64053;BME280;50299;49.524;8.536;2023-01-28T08:23:15;101537.63;;;-1.84;67.39
64053;BME280;50299;49.524;8.536;2023-01-28T08:25:41;101540.28;;;-1.09;67.46
64053;BME280;50299;49.524;8.536;2023-01-28T08:28:09;101539.75;;;-1.18;69.36
64053;BME280;50299;49.524;8.536;2023-01-28T08:30:37;101548.88;;;-0.69;70.22
64053;BME280;50299;49.524;8.536;2023-01-28T08:33:05;101546.81;;;-0.55;68.16
64053;BME280;50299;49.524;8.536;2023-01-28T08:35:33;101549.66;;;-0.01;67.36
64053;BME280;50299;49.524;8.536;2023-01-28T08:38:01;101551.66;;;0.03;62.66
64053;BME280;50299;49.524;8.536;2023-01-28T08:40:29;101548.72;;;-0.25;66.68
64053;BME280;50299;49.524;8.536;2023-01-28T08:42:56;101550.91;;;-0.16;64.35
64053;BME280;50299;49.524;8.536;2023-01-28T08:45:26;101558.44;;;-0.48;63.37
64053;BME280;50299;49.524;8.536;2023-01-28T08:47:55;101555.47;;;0.02;66.43
64053;BME280;50299;49.524;8.536;2023-01-28T08:50:24;101549.22;;;-0.29;63.01
64053;BME280;50299;49.524;8.536;2023-01-28T08:52:55;101553.97;;;-0.42;61.71
64053;BME280;50299;49.524;8.536;2023-01-28T08:55:23;101552.44;;;-0.38;64.13
64053;BME280;50299;49.524;8.536;2023-01-28T08:57:53;101554.66;;;-1.02;66.18
64053;BME280;50299;49.524;8.536;2023-01-28T09:00:21;101553.06;;;-0.06;71.39
64053;BME280;50299;49.524;8.536;2023-01-28T09:02:51;101560.19;;;0.07;62.72
64053;BME280;50299;49.524;8.536;2023-01-28T09:05:18;101550.34;;;-0.55;63.66
64053;BME280;50299;49.524;8.536;2023-01-28T09:07:46;101563.06;;;-0.85;64.86
64053;BME280;50299;49.524;8.536;2023-01-28T09:10:13;101557.78;;;-0.98;64.54
64053;BME280;50299;49.524;8.536;2023-01-28T09:12:43;101554.28;;;-1.31;66.20
64053;BME280;50299;49.524;8.536;2023-01-28T09:15:10;101556.69;;;-1.97;66.83
64053;BME280;50299;49.524;8.536;2023-01-28T09:17:36;101558.56;;;-1.98;67.89
64053;BME280;50299;49.524;8.536;2023-01-28T09:20:03;101565.03;;;-1.67;68.63
64053;BME280;50299;49.524;8.536;2023-01-28T09:22:31;101575.38;;;-1.33;67.63
64053;BME280;50299;49.524;8.536;2023-01-28T09:25:00;101559.41;;;-0.97;72.14
64053;BME280;50299;49.524;8.536;2023-01-28T09:27:29;101568.16;;;-1.70;66.08
64053;BME280;50299;49.524;8.536;2023-01-28T09:29:56;101576.44;;;-2.29;68.83
64053;BME280;50299;49.524;8.536;2023-01-28T09:32:22;101562.53;;;-1.44;73.81
64053;BME280;50299;49.524;8.536;2023-01-28T09:34:49;101564.03;;;-2.05;68.18
64053;BME280;50299;49.524;8.536;2023-01-28T09:37:16;101571.00;;;-2.22;67.76
64053;BME280;50299;49.524;8.536;2023-01-28T09:39:43;101585.31;;;-2.15;68.64
64053;BME280;50299;49.524;8.536;2023-01-28T09:42:32;101586.78;;;-2.12;68.47
64053;BME280;50299;49.524;8.536;2023-01-28T09:45:15;101583.75;;;-2.29;69.62
64053;BME280;50299;49.524;8.536;2023-01-28T09:47:46;101586.75;;;-2.06;67.31
64053;BME280;50299;49.524;8.536;2023-01-28T09:52:49;101594.75;;;-2.24;68.02
64053;BME280;50299;49.524;8.536;2023-01-28T09:55:36;101591.34;;;-2.06;68.56
64053;BME280;50299;49.524;8.536;2023-01-28T09:58:12;101588.56;;;-1.99;66.62
64053;BME280;50299;49.524;8.536;2023-01-28T10:00:54;101590.88;;;-1.65;68.25
64053;BME280;50299;49.524;8.536;2023-01-28T10:08:56;101595.75;;;-2.63;67.28
64053;BME280;50299;49.524;8.536;2023-01-28T10:14:18;101602.03;;;-2.18;69.67
64053;BME280;50299;49.524;8.536;2023-01-28T10:16:55;101593.91;;;-2.89;68.43
64053;BME280;50299;49.524;8.536;2023-01-28T10:19:28;101592.22;;;-2.64;69.69
64053;BME280;50299;49.524;8.536;2023-01-28T10:22:01;101599.00;;;-2.41;68.41
64053;BME280;50299;49.524;8.536;2023-01-28T10:26:56;101593.59;;;-2.48;70.48
64053;BME280;50299;49.524;8.536;2023-01-28T10:29:27;101593.81;;;-1.98;67.65
64053;BME280;50299;49.524;8.536;2023-01-28T10:31:59;101597.22;;;-2.16;68.91
64053;BME280;50299;49.524;8.536;2023-01-28T10:34:27;101595.44;;;-1.65;67.81
64053;BME280;50299;49.524;8.536;2023-01-28T10:36:56;101608.13;;;-1.91;65.89
64053;BME280;50299;49.524;8.536;2023-01-28T10:39:24;101607.03;;;-2.21;66.82
64053;BME280;50299;49.524;8.536;2023-01-28T10:41:51;101600.97;;;-1.47;65.09
64053;BME280;50299;49.524;8.536;2023-01-28T10:44:30;101603.03;;;-2.12;65.03
64053;BME280;50299;49.524;8.536;2023-01-28T10:47:01;101610.59;;;-2.21;64.74
64053;BME280;50299;49.524;8.536;2023-01-28T10:49:30;101601.59;;;-1.77;69.21
64053;BME280;50299;49.524;8.536;2023-01-28T10:51:57;101604.16;;;-1.88;66.54
64053;BME280;50299;49.524;8.536;2023-01-28T10:54:27;101607.28;;;-1.91;66.34
64053;BME280;50299;49.524;8.536;2023-01-28T10:56:57;101610.97;;;-1.79;68.50
64053;BME280;50299;49.524;8.536;2023-01-28T10:59:30;101603.28;;;-1.82;64.27
64053;BME280;50299;49.524;8.536;2023-01-28T11:05:21;101614.56;;;-1.54;63.54
64053;BME280;50299;49.524;8.536;2023-01-28T11:07:48;101616.22;;;-1.84;63.66
64053;BME280;50299;49.524;8.536;2023-01-28T11:10:32;101625.91;;;-2.46;65.20
64053;BME280;50299;49.524;8.536;2023-01-28T11:13:02;101620.75;;;-2.68;65.80
64053;BME280;50299;49.524;8.536;2023-01-28T11:15:30;101621.66;;;-3.00;67.44
64053;BME280;50299;49.524;8.536;2023-01-28T11:18:02;101617.41;;;-2.12;70.33
64053;BME280;50299;49.524;8.536;2023-01-28T11:20:37;101628.56;;;-2.33;65.77
64053;BME280;50299;49.524;8.536;2023-01-28T11:23:06;101619.63;;;-1.32;65.29
64053;BME280;50299;49.524;8.536;2023-01-28T11:25:35;101612.72;;;-1.91;64.98
64053;BME280;50299;49.524;8.536;2023-01-28T11:28:04;101620.41;;;-1.82;64.82
64053;BME280;50299;49.524;8.536;2023-01-28T11:30:37;101612.59;;;-1.15;63.44
64053;BME280;50299;49.524;8.536;2023-01-28T11:33:18;101614.97;;;-1.25;62.65
64053;BME280;50299;49.524;8.536;2023-01-28T11:38:31;101617.28;;;-1.85;62.38
64053;BME280;50299;49.524;8.536;2023-01-28T11:40:59;101617.31;;;-1.92;65.48
64053;BME280;50299;49.524;8.536;2023-01-28T11:43:30;101615.19;;;-1.52;62.67
64053;BME280;50299;49.524;8.536;2023-01-28T11:46:16;101610.44;;;-1.31;62.04
64053;BME280;50299;49.524;8.536;2023-01-28T11:49:00;101599.78;;;-1.58;64.99
64053;BME280;50299;49.524;8.536;2023-01-28T11:51:37;101603.19;;;-2.00;61.97
64053;BME280;50299;49.524;8.536;2023-01-28T11:54:22;101590.09;;;-1.47;61.87
64053;BME280;50299;49.524;8.536;2023-01-28T11:57:15;101600.38;;;-1.87;65.57
64053;BME280;50299;49.524;8.536;2023-01-28T12:02:52;101599.75;;;-2.28;63.28
64053;BME280;50299;49.524;8.536;2023-01-28T12:05:27;101598.50;;;-1.55;64.52
64053;BME280;50299;49.524;8.536;2023-01-28T12:11:01;101595.25;;;-1.14;61.01
64053;BME280;50299;49.524;8.536;2023-01-28T12:13:47;101582.59;;;-0.58;58.93
64053;BME280;50299;49.524;8.536;2023-01-28T12:16:25;101583.13;;;-0.49;57.54
64053;BME280;50299;49.524;8.536;2023-01-28T12:19:17;101577.31;;;-1.15;59.78
64053;BME280;50299;49.524;8.536;2023-01-28T12:22:14;101575.09;;;-1.24;59.21
64053;BME280;50299;49.524;8.536;2023-01-28T12:24:55;101578.81;;;-1.44;57.78
64053;BME280;50299;49.524;8.536;2023-01-28T12:27:50;101577.44;;;-2.23;59.87
64053;BME280;50299;49.524;8.536;2023-01-28T12:36:29;101580.63;;;-2.33;60.00
64053;BME280;50299;49.524;8.536;2023-01-28T12:39:14;101580.41;;;-2.31;62.17
64053;BME280;50299;49.524;8.536;2023-01-28T12:41:49;101584.44;;;-2.47;60.61
64053;BME280;50299;49.524;8.536;2023-01-28T12:44:27;101575.47;;;-2.03;59.90
64053;BME280;50299;49.524;8.536;2023-01-28T12:47:00;101585.44;;;-1.96;58.48
64053;BME280;50299;49.524;8.536;2023-01-28T12:49:37;101579.59;;;-1.93;59.62
64053;BME280;50299;49.524;8.536;2023-01-28T12:52:13;101567.84;;;-1.81;59.30
64053;BME280;50299;49.524;8.536;2023-01-28T12:55:02;101567.22;;;-0.83;62.26
64053;BME280;50299;49.524;8.536;2023-01-28T12:57:31;101564.19;;;-0.74;57.18
64053;BME280;50299;49.524;8.536;2023-01-28T13:03:13;101578.06;;;-1.33;58.05
64053;BME280;50299;49.524;8.536;2023-01-28T13:05:49;101578.28;;;-1.84;57.76
64053;BME280;50299;49.524;8.536;2023-01-28T13:08:25;101583.31;;;-1.88;60.84
64053;BME280;50299;49.524;8.536;2023-01-28T13:10:54;101578.97;;;-1.39;60.72
64053;BME280;50299;49.524;8.536;2023-01-28T13:13:34;101584.72;;;-1.29;57.55
64053;BME280;50299;49.524;8.536;2023-01-28T13:16:03;101563.56;;;-1.45;56.75
64053;BME280;50299;49.524;8.536;2023-01-28T13:23:41;101575.69;;;-2.04;58.08
64053;BME280;50299;49.524;8.536;2023-01-28T13:28:49;101584.09;;;-1.24;58.55
64053;BME280;50299;49.524;8.536;2023-01-28T13:31:17;101585.53;;;-0.78;59.71
64053;BME280;50299;49.524;8.536;2023-01-28T13:34:00;101586.94;;;-0.75;56.96
64053;BME280;50299;49.524;8.536;2023-01-28T13:36:29;101586.03;;;-1.06;57.75
64053;BME280;50299;49.524;8.536;2023-01-28T13:39:34;101586.66;;;-0.67;57.27
64053;BME280;50299;49.524;8.536;2023-01-28T13:42:06;101597.50;;;-0.86;59.08
64053;BME280;50299;49.524;8.536;2023-01-28T13:44:35;101594.03;;;-1.18;56.27
64053;BME280;50299;49.524;8.536;2023-01-28T13:49:48;101616.97;;;-1.14;57.77
64053;BME280;50299;49.524;8.536;2023-01-28T13:52:23;101620.03;;;-1.92;57.37
64053;BME280;50299;49.524;8.536;2023-01-28T13:54:55;101620.09;;;-1.73;58.72
64053;BME280;50299;49.524;8.536;2023-01-28T13:58:03;101623.44;;;-1.40;58.34
64053;BME280;50299;49.524;8.536;2023-01-28T14:15:13;101647.19;;;-1.35;60.02
64053;BME280;50299;49.524;8.536;2023-01-28T14:17:53;101655.16;;;-1.72;60.56
64053;BME280;50299;49.524;8.536;2023-01-28T14:20:32;101660.56;;;-2.10;60.53
64053;BME280;50299;49.524;8.536;2023-01-28T14:23:04;101658.81;;;-2.43;60.27